Time;durP1;ratioP1;P1;durP2;ratioP2;P2;SDS_P1;SDS_P2;PMS_P1;PMS_P2;Temp;Humidity;BMP_temperature;BMP_pressure;BME280_temperature;BME280_humidity;BME280_pressure;Samples;Min_cycle;Max_cycle;Signal;HPM_P1;HPM_P2
2023/03/21 00:02:12;;;;;;;;;17.25;13.75;;;;;13.57;56.79;101259.53;5038892;28;45491;-65
2023/03/21 00:04:37;;;;;;;;;18.25;14.50;;;;;13.65;55.82;101270.06;5040030;28;45450;-64
2023/03/21 00:07:03;;;;;;;;;16.75;15.00;;;;;13.63;55.27;101271.81;5035927;28;45468;-64
2023/03/21 00:09:29;;;;;;;;;12.50;11.00;;;;;13.52;56.15;101261.28;5035708;28;45494;-67
2023/03/21 00:11:54;;;;;;;;;16.25;11.75;;;;;13.52;55.38;101269.19;5037447;28;45488;-65
2023/03/21 00:14:20;;;;;;;;;13.00;12.25;;;;;13.50;55.67;101268.31;5035720;28;45422;-64
2023/03/21 00:16:49;;;;;;;;;15.50;10.25;;;;;13.53;55.12;101276.22;5033751;28;45467;-67
2023/03/21 00:19:19;;;;;;;;;15.50;13.00;;;;;13.50;55.45;101261.31;5020508;28;48181;-65
2023/03/21 00:21:45;;;;;;;;;16.00;11.50;;;;;13.48;54.74;101257.81;5039449;28;45625;-65
2023/03/21 00:24:11;;;;;;;;;13.50;10.50;;;;;13.54;55.32;101260.41;5019396;28;45460;-65
2023/03/21 00:26:37;;;;;;;;;14.00;11.25;;;;;13.53;55.21;101261.31;5035964;28;45358;-66
2023/03/21 00:29:02;;;;;;;;;15.50;11.75;;;;;13.51;55.68;101263.06;5034688;28;46391;-65
2023/03/21 00:31:28;;;;;;;;;14.25;11.00;;;;;13.50;55.65;101255.16;5035298;28;45419;-66
2023/03/21 00:33:53;;;;;;;;;17.25;14.00;;;;;13.45;56.21;101260.41;5034661;28;45545;-65
2023/03/21 00:36:20;;;;;;;;;17.25;12.50;;;;;13.42;57.10;101259.56;5034374;28;45518;-66
2023/03/21 00:38:45;;;;;;;;;13.00;11.25;;;;;13.32;57.44;101251.69;5037683;28;46207;-65
2023/03/21 00:41:13;;;;;;;;;13.50;13.25;;;;;13.27;57.20;101250.81;5035094;28;45632;-66
2023/03/21 00:43:40;;;;;;;;;16.50;13.25;;;;;13.33;58.02;101257.81;5037947;28;45499;-65
2023/03/21 00:46:05;;;;;;;;;14.50;13.50;;;;;13.30;57.53;101258.69;5039548;28;45374;-65
2023/03/21 00:48:31;;;;;;;;;11.25;11.00;;;;;13.27;57.96;101250.81;5017100;28;47205;-64
2023/03/21 00:50:59;;;;;;;;;14.75;13.50;;;;;13.27;57.28;101244.66;5035114;28;45466;-65
2023/03/21 00:53:25;;;;;;;;;17.25;14.25;;;;;13.26;57.61;101250.75;5035648;28;45588;-65
2023/03/21 00:55:51;;;;;;;;;15.25;14.75;;;;;13.27;57.52;101249.91;5035658;28;45548;-65
2023/03/21 00:58:17;;;;;;;;;19.00;16.75;;;;;13.24;57.38;101242.00;5016607;28;45442;-66
2023/03/21 01:00:45;;;;;;;;;14.25;11.50;;;;;13.21;57.83;101248.13;5034915;28;45376;-64
2023/03/21 01:03:14;;;;;;;;;17.50;16.25;;;;;13.11;57.92;101225.34;5035529;28;45524;-65
2023/03/21 01:06:04;;;;;;;;;14.75;14.75;;;;;13.10;58.08;101240.28;5038152;28;45521;-65
2023/03/21 01:08:35;;;;;;;;;24.50;15.00;;;;;13.04;57.97;101229.75;5033283;28;45729;-65
2023/03/21 01:11:04;;;;;;;;;15.00;14.00;;;;;13.06;57.73;101238.50;5035310;28;45425;-65
2023/03/21 01:13:30;;;;;;;;;13.25;12.50;;;;;13.05;58.30;101231.50;5033318;28;45510;-64
2023/03/21 01:15:56;;;;;;;;;21.00;14.75;;;;;12.96;58.13;101213.09;5034982;28;45454;-65
2023/03/21 01:18:26;;;;;;;;;18.25;15.50;;;;;13.09;58.29;101227.97;5034580;28;45733;-65
2023/03/21 01:20:53;;;;;;;;;19.00;15.25;;;;;13.06;58.13;101228.00;5036219;28;45366;-65
2023/03/21 01:23:19;;;;;;;;;16.75;16.00;;;;;13.06;58.31;101221.84;5034573;28;45443;-65
2023/03/21 01:25:47;;;;;;;;;17.00;15.00;;;;;13.08;57.32;101226.25;5034216;28;45674;-65
2023/03/21 01:28:13;;;;;;;;;19.00;12.50;;;;;13.02;57.19;101218.34;5019452;28;46631;-65
2023/03/21 01:30:38;;;;;;;;;17.50;14.75;;;;;13.01;56.80;101211.34;5037174;28;45293;-65
2023/03/21 01:33:05;;;;;;;;;15.25;12.50;;;;;12.97;56.86;101208.72;5052720;28;46653;-65
2023/03/21 01:35:31;;;;;;;;;17.75;14.75;;;;;13.00;56.84;101208.69;5017951;28;45651;-65
2023/03/21 01:37:57;;;;;;;;;13.50;10.75;;;;;12.98;56.91;101208.72;5035998;28;45703;-65
2023/03/21 01:40:25;;;;;;;;;11.50;11.50;;;;;12.99;56.59;101215.72;5036405;28;45418;-66
2023/03/21 01:42:50;;;;;;;;;18.50;15.25;;;;;12.87;57.03;101205.22;5033977;28;45536;-65
2023/03/21 01:45:53;;;;;;;;;11.00;10.25;;;;;12.96;56.96;101214.88;5036574;28;45541;-63
2023/03/21 01:48:20;;;;;;;;;16.75;13.75;;;;;12.91;55.95;101223.63;5033992;28;45458;-65
2023/03/21 01:50:46;;;;;;;;;10.50;10.50;;;;;12.84;56.27;101221.00;5026903;28;45466;-65
2023/03/21 01:53:14;;;;;;;;;14.50;12.75;;;;;12.76;56.14;101213.06;5033213;28;45470;-64
2023/03/21 01:55:40;;;;;;;;;10.00;9.25;;;;;12.72;56.52;101206.09;5027329;28;45762;-65
2023/03/21 01:58:09;;;;;;;;;12.25;11.00;;;;;12.81;56.30;101210.47;5033752;28;46593;-65
2023/03/21 02:00:37;;;;;;;;;13.75;10.50;;;;;12.83;56.61;101213.97;5016029;28;45463;-65
2023/03/21 02:03:07;;;;;;;;;14.75;9.50;;;;;12.80;55.72;101200.84;5033287;28;45459;-65
2023/03/21 02:05:46;;;;;;;;;16.50;11.75;;;;;12.70;56.29;101199.94;5032508;28;45481;-65
2023/03/21 02:08:12;;;;;;;;;13.25;9.75;;;;;12.76;56.36;101196.44;5016887;28;46809;-65
2023/03/21 02:10:41;;;;;;;;;12.75;11.00;;;;;12.69;55.69;101183.31;5036184;28;45442;-65
2023/03/21 02:13:08;;;;;;;;;13.00;10.00;;;;;12.58;56.38;101178.94;5034046;28;45503;-65
2023/03/21 02:15:58;;;;;;;;;8.50;8.00;;;;;12.45;55.74;101185.91;5033527;28;45712;-66
2023/03/21 02:18:26;;;;;;;;;11.25;8.00;;;;;12.46;56.24;101185.91;5033539;28;45992;-66
2023/03/21 02:21:29;;;;;;;;;10.75;8.50;;;;;12.28;55.81;101146.47;5033257;28;45534;-65
2023/03/21 02:24:25;;;;;;;;;10.00;7.50;;;;;12.47;55.79;101182.41;5033586;28;45941;-65
2023/03/21 02:27:22;;;;;;;;;14.00;9.00;;;;;12.42;55.27;101175.41;5038040;28;45531;-65
2023/03/21 02:29:57;;;;;;;;;12.25;7.75;;;;;12.46;54.78;101174.53;5037446;28;45600;-64
2023/03/21 02:32:38;;;;;;;;;11.00;8.75;;;;;12.45;55.31;101171.00;5033839;28;45489;-66
2023/03/21 02:35:13;;;;;;;;;11.50;8.00;;;;;12.40;54.75;101166.63;5033223;28;45937;-66
2023/03/21 02:37:48;;;;;;;;;8.25;7.25;;;;;12.40;54.51;101161.38;5033061;28;45896;-63
2023/03/21 02:40:33;;;;;;;;;8.25;6.25;;;;;12.36;54.42;101159.63;5033394;28;46064;-64
2023/03/21 02:43:14;;;;;;;;;13.00;8.50;;;;;12.34;54.55;101156.09;5033544;28;45479;-64
2023/03/21 02:46:04;;;;;;;;;6.75;6.75;;;;;12.43;54.62;101164.00;5033251;28;45670;-65
2023/03/21 02:48:44;;;;;;;;;7.00;7.00;;;;;12.48;54.00;101157.00;5033346;28;45539;-64
2023/03/21 02:51:14;;;;;;;;;10.50;9.25;;;;;12.49;54.09;101145.63;5048544;28;47821;-65
2023/03/21 02:53:46;;;;;;;;;11.50;8.00;;;;;12.37;53.88;101143.00;5034132;28;45380;-65
2023/03/21 02:56:13;;;;;;;;;8.75;6.50;;;;;12.37;54.05;101148.25;5037349;28;45428;-65
2023/03/21 02:58:41;;;;;;;;;11.00;7.25;;;;;12.27;54.02;101140.34;5035131;28;45391;-67
2023/03/21 03:01:08;;;;;;;;;8.75;6.25;;;;;12.29;54.01;101140.34;5031392;28;46265;-66
2023/03/21 03:03:35;;;;;;;;;9.25;7.00;;;;;12.34;53.77;101150.84;5032902;28;45455;-65
2023/03/21 03:06:07;;;;;;;;;8.25;6.50;;;;;12.35;53.97;101148.25;5032711;28;45256;-65
2023/03/21 03:09:03;;;;;;;;;8.50;6.50;;;;;12.34;53.99;101150.84;5033468;28;45519;-65
2023/03/21 03:11:34;;;;;;;;;7.25;6.00;;;;;12.31;53.92;101146.47;5011532;28;46259;-65
2023/03/21 03:14:28;;;;;;;;;10.25;5.75;;;;;12.34;54.23;101138.63;5032519;28;45367;-65
2023/03/21 03:17:07;;;;;;;;;7.50;5.25;;;;;12.23;54.09;101111.47;5018936;28;45477;-65
2023/03/21 03:19:40;;;;;;;;;5.75;5.25;;;;;12.33;53.39;101141.22;5036523;28;45512;-66
2023/03/21 03:22:16;;;;;;;;;5.75;5.00;;;;;12.29;53.68;101133.34;5035520;28;45596;-65
2023/03/21 03:24:50;;;;;;;;;9.50;5.50;;;;;12.28;53.90;101138.59;5036491;28;45411;-65
2023/03/21 03:27:22;;;;;;;;;6.25;6.25;;;;;12.19;53.90;101121.06;5036203;28;45995;-65
2023/03/21 03:29:51;;;;;;;;;11.25;5.75;;;;;12.23;54.33;101124.59;5036683;28;45425;-65
2023/03/21 03:32:19;;;;;;;;;7.25;5.25;;;;;12.18;53.99;101121.09;5035463;28;46785;-65
2023/03/21 03:34:50;;;;;;;;;5.75;5.75;;;;;12.23;53.79;101124.59;5037620;28;45539;-64
2023/03/21 03:37:20;;;;;;;;;6.25;5.00;;;;;12.21;53.85;101131.59;5035916;28;45446;-65
2023/03/21 03:39:52;;;;;;;;;7.75;6.50;;;;;12.15;54.07;101126.31;5036562;28;45423;-64
2023/03/21 03:42:23;;;;;;;;;8.75;7.75;;;;;12.20;53.69;101127.22;5035595;28;47059;-66
2023/03/21 03:44:49;;;;;;;;;8.00;5.50;;;;;12.15;54.07;101132.47;5017737;28;45462;-65
2023/03/21 03:47:23;;;;;;;;;4.00;4.00;;;;;12.15;53.66;101127.22;5039142;28;45622;-65
2023/03/21 03:50:08;;;;;;;;;8.00;6.00;;;;;12.14;53.76;101125.44;5036166;28;45319;-65
2023/03/21 03:52:43;;;;;;;;;6.00;6.00;;;;;12.09;53.79;101116.69;5033976;28;47173;-66
2023/03/21 03:55:12;;;;;;;;;8.75;5.50;;;;;12.08;54.32;101118.44;5036313;28;45971;-65
2023/03/21 03:57:39;;;;;;;;;7.75;4.50;;;;;12.01;54.30;101107.94;5039295;28;45517;-65
2023/03/21 04:00:12;;;;;;;;;7.00;6.75;;;;;12.08;53.57;101122.81;5036678;28;45478;-64
2023/03/21 04:02:38;;;;;;;;;5.50;4.25;;;;;12.02;54.21;101120.16;5036160;28;45537;-65
2023/03/21 04:05:04;;;;;;;;;5.75;5.50;;;;;11.99;53.88;101107.03;5038202;28;45332;-64
2023/03/21 04:07:30;;;;;;;;;5.75;5.50;;;;;12.03;54.03;101124.53;5018530;28;45538;-66
2023/03/21 04:09:56;;;;;;;;;5.25;4.25;;;;;12.02;54.67;101115.78;5035954;28;45568;-67
2023/03/21 04:12:22;;;;;;;;;8.00;6.25;;;;;12.06;54.36;101117.56;5035222;28;45788;-65
2023/03/21 04:14:47;;;;;;;;;8.75;6.00;;;;;12.06;54.30;101125.44;5038891;28;45413;-67
2023/03/21 04:17:14;;;;;;;;;7.50;5.00;;;;;12.09;54.49;101128.06;5017230;28;45553;-65
2023/03/21 04:19:40;;;;;;;;;11.50;6.25;;;;;12.14;54.38;101135.94;5035832;28;45608;-66
2023/03/21 04:22:06;;;;;;;;;8.50;4.50;;;;;12.19;53.98;101134.19;5039442;28;45617;-65
2023/03/21 04:24:32;;;;;;;;;7.75;5.50;;;;;12.27;54.17;101135.09;5036749;28;45473;-66
2023/03/21 04:26:59;;;;;;;;;8.75;6.25;;;;;12.15;54.42;101124.59;5033646;28;45356;-67
2023/03/21 04:29:24;;;;;;;;;5.75;5.75;;;;;12.09;54.53;101125.44;5035680;28;45708;-65
2023/03/21 04:31:50;;;;;;;;;5.50;5.50;;;;;12.11;55.13;101129.81;5017885;28;46478;-66
2023/03/21 04:34:16;;;;;;;;;7.00;7.00;;;;;12.10;54.74;101131.53;5037335;28;45307;-66
2023/03/21 04:36:48;;;;;;;;;7.50;5.75;;;;;12.16;54.78;101134.19;5039894;28;45428;-65
2023/03/21 04:39:14;;;;;;;;;10.75;5.25;;;;;12.16;54.71;101126.31;5038474;28;45570;-65
2023/03/21 04:41:41;;;;;;;;;6.00;6.00;;;;;12.13;54.64;101123.69;5038625;28;45520;-66
2023/03/21 04:44:08;;;;;;;;;9.00;4.75;;;;;12.11;54.86;101116.69;5017167;28;45805;-65
2023/03/21 04:46:34;;;;;;;;;5.50;4.00;;;;;12.07;54.66;101116.66;5035631;28;45376;-65
2023/03/21 04:49:00;;;;;;;;;7.25;5.00;;;;;12.04;54.73;101113.19;5036582;28;45744;-66
2023/03/21 04:51:26;;;;;;;;;9.25;5.00;;;;;11.93;54.56;101118.38;5039312;28;45470;-66
2023/03/21 04:53:56;;;;;;;;;8.00;6.25;;;;;11.88;55.08;101114.88;5039336;28;45514;-66
2023/03/21 04:56:29;;;;;;;;;7.00;5.50;;;;;11.75;54.92;101119.19;5017254;28;45465;-67
2023/03/21 04:58:55;;;;;;;;;9.50;5.25;;;;;11.81;55.17;101119.19;5035625;28;45419;-67
2023/03/21 05:01:20;;;;;;;;;7.25;4.75;;;;;11.81;55.41;101119.19;5034831;28;46234;-66
2023/03/21 05:03:46;;;;;;;;;8.25;7.25;;;;;11.85;55.27;101122.72;5034405;28;45395;-66
2023/03/21 05:06:12;;;;;;;;;8.50;7.00;;;;;11.81;55.73;101129.69;5037566;28;45558;-65
2023/03/21 05:08:37;;;;;;;;;8.00;6.00;;;;;11.78;56.17;101134.06;5035517;28;45449;-65
2023/03/21 05:11:03;;;;;;;;;10.00;6.00;;;;;11.82;56.08;101125.34;5017077;28;45498;-65
2023/03/21 05:13:29;;;;;;;;;9.50;7.25;;;;;11.80;55.75;101127.09;5035141;28;45331;-64
2023/03/21 05:15:55;;;;;;;;;6.50;6.50;;;;;11.74;56.38;101124.44;5035280;28;45705;-64
2023/03/21 05:18:23;;;;;;;;;6.75;6.25;;;;;11.76;56.29;101120.94;5034908;28;45418;-65
2023/03/21 05:20:54;;;;;;;;;10.00;7.00;;;;;11.78;56.27;101113.06;5034566;28;45682;-65
2023/03/21 05:23:21;;;;;;;;;8.50;6.50;;;;;11.67;56.42;101100.81;5032643;28;45481;-64
2023/03/21 05:25:47;;;;;;;;;6.25;6.25;;;;;11.66;56.12;101108.66;5034658;28;45512;-65
2023/03/21 05:28:16;;;;;;;;;9.25;5.25;;;;;11.73;56.10;101110.44;5035005;28;45444;-68
2023/03/21 05:30:44;;;;;;;;;12.75;6.50;;;;;11.73;56.36;101112.19;5034456;28;46522;-67
2023/03/21 05:33:09;;;;;;;;;8.00;8.00;;;;;11.72;57.05;101126.16;5034623;28;45465;-65
2023/03/21 05:35:35;;;;;;;;;8.75;7.25;;;;;11.71;56.82;101127.03;5034307;28;45772;-65
2023/03/21 05:38:00;;;;;;;;;8.25;6.00;;;;;11.73;56.83;101117.44;5034013;28;45451;-64
2023/03/21 05:40:26;;;;;;;;;9.25;7.00;;;;;11.73;57.17;101115.69;5035027;28;45662;-65
2023/03/21 05:42:52;;;;;;;;;8.25;6.50;;;;;11.75;57.51;101119.19;5038787;28;45251;-66
2023/03/21 05:45:17;;;;;;;;;9.50;7.25;;;;;11.70;58.03;101114.78;5036230;28;45363;-64
2023/03/21 05:47:43;;;;;;;;;7.25;6.25;;;;;11.78;58.22;101110.44;5034335;28;45427;-67
2023/03/21 05:50:10;;;;;;;;;10.50;8.00;;;;;11.71;58.71;101101.69;5034078;28;45532;-67
2023/03/21 05:52:35;;;;;;;;;10.75;7.25;;;;;11.68;59.05;101118.28;5034088;28;45472;-67
2023/03/21 05:55:01;;;;;;;;;8.75;7.50;;;;;11.58;59.73;101113.00;5020400;28;45378;-67
2023/03/21 05:57:27;;;;;;;;;9.25;9.00;;;;;11.58;59.33;101115.59;5019079;28;45529;-66
2023/03/21 05:59:53;;;;;;;;;11.50;6.25;;;;;11.55;60.10;101116.47;5034294;28;46150;-66
2023/03/21 06:02:19;;;;;;;;;9.50;7.00;;;;;11.51;59.60;101113.84;5015418;28;45768;-67
2023/03/21 06:04:45;;;;;;;;;9.00;9.00;;;;;11.46;60.01;101098.97;5016389;28;45989;-64
2023/03/21 06:07:10;;;;;;;;;9.25;8.50;;;;;11.40;60.66;101104.19;5037126;28;45454;-66
2023/03/21 06:09:36;;;;;;;;;8.50;8.50;;;;;11.38;61.25;101107.66;5038222;28;45632;-66
2023/03/21 06:12:01;;;;;;;;;8.75;8.75;;;;;11.44;61.44;101115.59;5038168;28;45582;-65
2023/03/21 06:14:27;;;;;;;;;9.75;8.25;;;;;11.36;61.47;101105.03;5036294;28;45509;-65
2023/03/21 06:16:53;;;;;;;;;10.75;7.25;;;;;11.40;61.53;101109.44;5049794;28;45766;-66
2023/03/21 06:19:20;;;;;;;;;12.50;10.00;;;;;11.40;60.88;101113.81;4995812;28;45567;-64
2023/03/21 06:21:46;;;;;;;;;13.50;11.25;;;;;11.33;60.83;101122.50;5002776;28;45880;-64
2023/03/21 06:24:12;;;;;;;;;9.50;9.50;;;;;11.37;61.31;101119.91;5034257;28;45441;-66
2023/03/21 06:26:37;;;;;;;;;14.75;11.75;;;;;11.32;61.31;101125.97;5036517;28;45314;-67
2023/03/21 06:29:03;;;;;;;;;12.25;11.00;;;;;11.28;61.26;101122.50;5015090;28;46543;-66
2023/03/21 06:31:29;;;;;;;;;14.25;10.00;;;;;11.28;61.74;101126.88;5032299;28;45482;-65
2023/03/21 06:33:54;;;;;;;;;10.00;9.50;;;;;11.25;61.81;101123.34;5033688;28;45544;-67
2023/03/21 06:36:20;;;;;;;;;9.75;8.25;;;;;11.30;61.68;101125.13;5033362;28;45510;-65
2023/03/21 06:38:47;;;;;;;;;14.00;9.75;;;;;11.33;62.01;101110.28;5033170;28;45455;-64
2023/03/21 06:41:13;;;;;;;;;11.25;8.00;;;;;11.44;62.12;101124.31;5024237;28;45513;-65
2023/03/21 06:43:39;;;;;;;;;11.50;11.50;;;;;11.47;61.60;101115.59;5033448;28;45393;-65
2023/03/21 06:46:05;;;;;;;;;17.00;11.75;;;;;11.39;61.85;101118.19;5016103;28;45451;-65
2023/03/21 06:48:31;;;;;;;;;15.50;10.50;;;;;11.47;61.61;101115.59;5013648;28;47494;-64
2023/03/21 06:50:56;;;;;;;;;12.50;10.75;;;;;11.49;61.58;101105.13;5037177;28;45260;-65
2023/03/21 06:53:26;;;;;;;;;14.25;10.50;;;;;11.39;62.00;101099.81;5037569;28;45483;-65
2023/03/21 06:55:55;;;;;;;;;13.00;10.75;;;;;11.36;62.54;101105.03;5053360;28;45660;-65
2023/03/21 06:58:22;;;;;;;;;16.25;10.50;;;;;11.38;62.61;101105.91;5017094;28;46896;-64
2023/03/21 07:00:48;;;;;;;;;15.25;12.00;;;;;11.34;62.64;101088.44;5032687;28;45291;-65
2023/03/21 07:03:13;;;;;;;;;15.00;13.00;;;;;11.39;62.52;101096.28;5032812;28;45358;-65
2023/03/21 07:05:39;;;;;;;;;11.25;10.00;;;;;11.43;62.35;101098.94;5048643;28;45424;-64
2023/03/21 07:08:09;;;;;;;;;14.00;10.50;;;;;11.39;62.88;101088.44;5034034;28;45403;-65
2023/03/21 07:10:38;;;;;;;;;13.25;12.00;;;;;11.42;62.49;101093.72;5034789;28;45561;-65
2023/03/21 07:13:04;;;;;;;;;13.25;10.50;;;;;11.43;62.18;101074.47;5033364;28;45376;-64
2023/03/21 07:15:29;;;;;;;;;11.50;11.50;;;;;11.52;62.50;101090.25;5033585;28;45482;-65
2023/03/21 07:17:55;;;;;;;;;15.00;13.00;;;;;11.57;62.12;101083.25;5015081;28;47022;-65
2023/03/21 07:20:21;;;;;;;;;11.25;10.25;;;;;11.73;62.22;101086.81;5033537;28;45323;-64
2023/03/21 07:22:47;;;;;;;;;13.00;10.25;;;;;11.84;61.61;101082.47;5032836;28;45467;-65
2023/03/21 07:25:12;;;;;;;;;15.25;13.00;;;;;11.82;61.11;101071.09;5033694;28;45298;-67
2023/03/21 07:27:38;;;;;;;;;13.00;13.00;;;;;11.81;60.96;101077.19;5032406;28;45603;-63
2023/03/21 07:30:05;;;;;;;;;13.75;13.50;;;;;11.83;61.03;101080.72;5032982;28;45527;-64
2023/03/21 07:32:36;;;;;;;;;13.50;13.25;;;;;11.86;61.16;101091.25;5032589;28;45913;-65
2023/03/21 07:35:02;;;;;;;;;16.75;14.50;;;;;11.85;61.03;101083.34;5019284;28;45571;-65
2023/03/21 07:37:27;;;;;;;;;21.75;13.00;;;;;11.77;60.67;101075.47;5037138;28;45490;-65
2023/03/21 07:39:53;;;;;;;;;14.75;12.00;;;;;11.98;60.58;101085.19;5036752;28;45376;-64
2023/03/21 07:42:19;;;;;;;;;13.25;13.25;;;;;12.03;60.39;101079.91;5034639;28;45891;-65
2023/03/21 07:44:45;;;;;;;;;10.50;9.75;;;;;12.25;59.77;101080.81;5033176;28;45479;-65
2023/03/21 07:47:10;;;;;;;;;14.00;9.75;;;;;12.22;59.12;101078.16;5035771;28;45984;-66
2023/03/21 07:49:36;;;;;;;;;15.00;10.50;;;;;12.25;58.76;101073.81;5032487;28;45361;-65
2023/03/21 07:52:03;;;;;;;;;11.00;11.00;;;;;12.36;58.91;101084.31;5032551;28;45385;-64
2023/03/21 07:54:29;;;;;;;;;12.75;11.25;;;;;12.44;58.12;101071.19;5032802;28;45435;-64
2023/03/21 07:56:55;;;;;;;;;13.75;10.50;;;;;12.44;58.00;101055.44;5034828;28;46192;-66
2023/03/21 07:59:21;;;;;;;;;15.00;12.50;;;;;12.43;57.90;101048.41;5036790;28;45436;-66
2023/03/21 08:01:47;;;;;;;;;14.50;13.75;;;;;12.53;58.17;101031.78;5034466;28;46003;-65
2023/03/21 08:04:12;;;;;;;;;15.00;12.50;;;;;12.56;57.48;101039.66;5018016;28;45502;-66
2023/03/21 08:06:38;;;;;;;;;14.75;11.75;;;;;12.43;58.14;101024.78;5035953;28;45475;-65
2023/03/21 08:09:04;;;;;;;;;16.50;15.00;;;;;12.37;58.44;101041.41;5017496;28;45380;-65
2023/03/21 08:11:30;;;;;;;;;15.75;13.75;;;;;12.34;58.65;101040.53;5038419;28;45505;-64
2023/03/21 08:13:57;;;;;;;;;13.75;10.00;;;;;12.32;58.92;101058.06;5040302;28;45479;-66
2023/03/21 08:16:22;;;;;;;;;12.25;11.50;;;;;12.30;58.69;101081.69;5040207;28;45458;-66
2023/03/21 08:18:48;;;;;;;;;11.75;8.50;;;;;12.32;58.56;101089.59;5039923;28;45430;-66
2023/03/21 08:21:13;;;;;;;;;15.00;11.25;;;;;12.44;58.58;101098.34;5037884;28;45549;-65
2023/03/21 08:23:39;;;;;;;;;17.00;11.00;;;;;12.35;58.44;101100.09;5035662;28;45388;-65
2023/03/21 08:26:05;;;;;;;;;14.50;12.75;;;;;12.16;59.17;101089.56;5038063;28;45478;-66
2023/03/21 08:28:30;;;;;;;;;16.50;11.25;;;;;12.34;59.21;101122.84;5039906;28;45249;-65
2023/03/21 08:30:56;;;;;;;;;12.50;11.50;;;;;12.25;59.27;101081.69;5035625;28;45374;-65
2023/03/21 08:33:22;;;;;;;;;16.00;13.75;;;;;12.43;59.58;101106.19;5036247;28;45534;-64
2023/03/21 08:35:47;;;;;;;;;16.50;13.00;;;;;12.45;58.95;101105.31;5017341;28;46535;-65
2023/03/21 08:38:13;;;;;;;;;14.75;13.50;;;;;12.41;59.22;101092.19;5017314;28;45398;-65
2023/03/21 08:40:38;;;;;;;;;15.00;13.25;;;;;12.43;59.00;101078.22;5017636;28;45443;-65
2023/03/21 08:43:04;;;;;;;;;15.25;12.75;;;;;12.53;59.57;101081.69;5035593;28;45451;-66
2023/03/21 08:45:30;;;;;;;;;16.25;12.50;;;;;12.60;59.44;101075.56;5016967;28;47835;-65
2023/03/21 08:47:56;;;;;;;;;14.50;8.50;;;;;12.56;59.44;101071.19;5035959;28;45414;-64
2023/03/21 08:50:25;;;;;;;;;14.75;12.00;;;;;12.65;59.49;101070.31;5035259;28;45401;-65
2023/03/21 08:52:51;;;;;;;;;20.25;13.50;;;;;12.80;59.32;101090.44;5035525;28;45570;-65
2023/03/21 08:55:18;;;;;;;;;16.00;10.75;;;;;13.08;58.31;101107.03;5034586;28;46600;-64
2023/03/21 08:57:45;;;;;;;;;16.75;12.25;;;;;13.30;57.88;101099.97;5034915;28;45525;-64
2023/03/21 09:00:13;;;;;;;;;17.75;12.25;;;;;13.53;57.58;101099.91;5035145;28;45535;-65
2023/03/21 09:02:40;;;;;;;;;15.00;11.00;;;;;13.87;56.88;101103.22;5034819;28;45721;-65
2023/03/21 09:05:07;;;;;;;;;16.75;13.00;;;;;14.11;55.80;101091.66;5035008;28;45734;-66
2023/03/21 09:07:37;;;;;;;;;17.75;13.75;;;;;14.26;55.06;101087.16;5016869;28;45525;-65
2023/03/21 09:10:04;;;;;;;;;13.25;13.00;;;;;14.39;55.13;101094.09;5016301;28;45414;-66
2023/03/21 09:12:29;;;;;;;;;15.75;12.25;;;;;14.36;54.40;101092.38;5037766;28;45509;-66
2023/03/21 09:14:55;;;;;;;;;15.50;14.75;;;;;14.43;54.85;101099.34;5065011;28;47562;-65
2023/03/21 09:17:21;;;;;;;;;10.25;10.00;;;;;14.54;54.50;101109.81;5034335;28;45541;-65
2023/03/21 09:19:48;;;;;;;;;17.75;15.00;;;;;14.62;54.79;101104.50;5034505;28;45505;-65
2023/03/21 09:22:16;;;;;;;;;10.75;8.50;;;;;14.70;54.58;101105.28;5028353;28;45633;-64
2023/03/21 09:24:46;;;;;;;;;15.75;12.50;;;;;14.61;54.25;101110.63;5018555;28;46912;-65
2023/03/21 09:27:14;;;;;;;;;14.00;12.25;;;;;14.70;54.65;101107.91;5030371;28;45810;-66
2023/03/21 09:29:42;;;;;;;;;14.75;11.25;;;;;14.74;53.85;101101.72;5032133;28;46331;-66
2023/03/21 09:32:08;;;;;;;;;12.33;10.00;;;;;14.73;54.04;101089.41;5036845;28;45502;-64
2023/03/21 09:34:35;;;;;;;;;10.67;9.33;;;;;14.91;53.85;101096.28;5024675;28;47836;-65
2023/03/21 09:37:02;;;;;;;;;9.67;9.67;;;;;14.88;53.92;101067.31;5036500;28;45570;-66
2023/03/21 09:39:28;;;;;;;;;8.00;8.00;;;;;15.27;53.42;101108.19;5031732;28;45851;-65
2023/03/21 09:41:59;;;;;;;;;8.33;8.33;;;;;15.40;53.72;101110.69;5032330;28;45488;-64
2023/03/21 09:45:07;;;;;;;;;9.00;5.67;;;;;15.38;54.58;101094.91;5017860;28;45441;-65
2023/03/21 09:47:44;;;;;;;;;9.00;8.33;;;;;15.51;53.17;101110.56;5029512;28;46536;-65
2023/03/21 09:50:21;;;;;;;;;6.00;5.67;;;;;15.50;53.25;101107.06;5032268;28;45855;-65
2023/03/21 09:52:59;;;;;;;;;12.33;8.33;;;;;15.39;52.98;101114.25;5027928;28;45373;-64
2023/03/21 09:55:33;;;;;;;;;10.00;9.33;;;;;15.29;52.98;101109.97;5012317;28;47906;-65
2023/03/21 09:58:27;;;;;;;;;6.00;6.00;;;;;15.27;53.22;101104.69;5014236;28;45535;-65
2023/03/21 10:01:21;;;;;;;;;7.67;5.67;;;;;15.24;53.06;101102.09;5032144;28;45504;-66
2023/03/21 10:03:52;;;;;;;;;7.67;6.67;;;;;15.30;53.15;101099.38;5031369;28;45723;-65
2023/03/21 10:06:18;;;;;;;;;8.67;6.67;;;;;15.18;53.44;101066.09;5031747;28;46443;-67
2023/03/21 10:08:48;;;;;;;;;5.33;5.00;;;;;15.47;53.10;101092.16;5013161;28;45461;-64
2023/03/21 10:11:23;;;;;;;;;4.00;4.00;;;;;15.57;53.11;101090.25;5013573;28;45514;-65
2023/03/21 10:13:53;;;;;;;;;9.33;5.67;;;;;15.73;52.82;101092.72;5032810;28;45412;-67
2023/03/21 10:16:27;;;;;;;;;7.00;6.00;;;;;15.77;52.26;101102.34;5035308;28;46347;-65
2023/03/21 10:18:54;;;;;;;;;5.67;5.67;;;;;15.64;52.69;101110.41;5033175;28;45419;-66
2023/03/21 10:21:23;;;;;;;;;7.33;5.00;;;;;15.62;52.57;101108.69;5032142;28;45571;-65
2023/03/21 10:23:52;;;;;;;;;7.33;6.00;;;;;15.54;53.07;101108.78;5030384;28;45294;-65
2023/03/21 10:26:20;;;;;;;;;8.00;5.00;;;;;15.35;53.42;101107.25;5014836;28;47337;-65
2023/03/21 10:28:47;;;;;;;;;7.67;7.67;;;;;15.37;53.72;101111.59;5038229;28;45466;-66
2023/03/21 10:31:17;;;;;;;;;5.00;3.33;;;;;15.36;53.43;101115.16;5019725;28;45470;-64
2023/03/21 10:33:46;;;;;;;;;5.00;4.67;;;;;15.25;54.03;101104.69;5035396;28;46261;-64
2023/03/21 10:36:30;;;;;;;;;4.67;4.67;;;;;15.31;54.11;101102.91;5016957;28;46928;-65
2023/03/21 10:39:13;;;;;;;;;4.33;4.33;;;;;15.36;54.32;101106.38;5010221;28;45708;-66
2023/03/21 10:41:39;;;;;;;;;10.67;10.33;;;;;15.48;54.26;101088.59;5013801;28;45505;-67
2023/03/21 10:44:14;;;;;;;;;5.33;5.33;;;;;15.84;53.21;101104.88;5031845;28;45565;-65
2023/03/21 10:46:57;;;;;;;;;7.00;5.00;;;;;16.27;52.70;101071.66;5030197;28;45565;-66
2023/03/21 10:49:25;;;;;;;;;9.00;7.00;;;;;16.59;51.88;101081.72;5031551;28;45596;-67
2023/03/21 10:51:55;;;;;;;;;9.33;6.00;;;;;16.86;51.28;101074.19;5013021;28;45363;-66
2023/03/21 10:54:28;;;;;;;;;9.00;8.33;;;;;17.04;50.80;101086.22;5016741;28;45369;-66
2023/03/21 10:57:17;;;;;;;;;6.00;6.00;;;;;17.19;50.35;101077.09;5035584;28;45557;-65
2023/03/21 11:00:04;;;;;;;;;6.00;4.00;;;;;17.41;49.93;101073.09;5016571;28;45475;-66
2023/03/21 11:02:36;;;;;;;;;7.67;5.00;;;;;17.40;50.31;101076.66;5013201;28;45512;-65
2023/03/21 11:05:39;;;;;;;;;7.67;4.33;;;;;18.32;49.36;101089.63;5031120;28;45488;-64
2023/03/21 11:08:14;;;;;;;;;11.67;11.33;;;;;18.87;50.71;101076.78;4988990;28;45560;-64
2023/03/21 11:11:03;;;;;;;;;13.33;10.33;;;;;19.41;50.40;101089.41;5030421;28;46032;-65
2023/03/21 11:13:44;;;;;;;;;11.67;7.33;;;;;20.10;47.49;101074.06;5031256;28;45613;-66
2023/03/21 11:16:21;;;;;;;;;10.67;6.67;;;;;20.53;44.84;101076.16;5030872;28;45440;-65
2023/03/21 11:18:55;;;;;;;;;4.33;4.33;;;;;20.87;45.03;101066.16;5032350;28;45406;-66
2023/03/21 11:21:26;;;;;;;;;6.67;6.33;;;;;20.94;42.28;101057.03;5028689;28;45400;-65
2023/03/21 11:23:55;;;;;;;;;5.33;5.33;;;;;21.14;43.85;101059.84;5027379;28;45771;-66
2023/03/21 11:26:31;;;;;;;;;7.00;4.00;;;;;21.85;42.86;101064.31;5030605;28;45427;-65
2023/03/21 11:28:57;;;;;;;;;7.67;7.00;;;;;22.48;41.82;101067.09;5030482;28;45611;-64